Time;durP1;ratioP1;P1;durP2;ratioP2;P2;SDS_P1;SDS_P2;PMS_P1;PMS_P2;Temp;Humidity;BMP_temperature;BMP_pressure;BME280_temperature;BME280_humidity;BME280_pressure;Samples;Min_cycle;Max_cycle;Signal;HPM_P1;HPM_P2
2021/10/18 00:00:47;;;;;;;30.33;17.27;;;;;;;7.60;100.00;98803.25;5075587;28;20227;-63
2021/10/18 00:03:13;;;;;;;30.00;16.97;;;;;;;7.53;100.00;98809.75;5075738;28;20213;-62
2021/10/18 00:05:40;;;;;;;31.57;18.90;;;;;;;7.52;100.00;98815.91;5075722;28;20216;-63
2021/10/18 00:08:06;;;;;;;28.53;16.60;;;;;;;7.43;100.00;98811.94;5075646;28;20238;-62
2021/10/18 00:10:33;;;;;;;31.97;18.53;;;;;;;7.36;100.00;98807.03;5073800;28;20216;-62
2021/10/18 00:12:59;;;;;;;32.50;18.93;;;;;;;7.26;100.00;98808.34;5075504;28;20211;-62
2021/10/18 00:15:26;;;;;;;32.40;18.13;;;;;;;7.25;100.00;98819.81;5074901;28;20713;-62
2021/10/18 00:17:55;;;;;;;32.77;18.23;;;;;;;7.21;100.00;98831.38;5075459;28;20584;-62
2021/10/18 00:20:23;;;;;;;34.33;19.00;;;;;;;7.22;100.00;98848.88;5075102;28;20714;-61
2021/10/18 00:22:50;;;;;;;34.50;18.90;;;;;;;7.26;100.00;98849.59;5075051;28;20700;-61
2021/10/18 00:25:19;;;;;;;38.10;19.77;;;;;;;7.27;100.00;98846.88;5075035;28;20746;-62
2021/10/18 00:27:45;;;;;;;36.10;18.93;;;;;;;7.22;100.00;98833.94;5075211;28;20211;-62
2021/10/18 00:30:13;;;;;;;44.57;21.20;;;;;;;7.18;100.00;98826.25;5074849;28;20218;-62
2021/10/18 00:32:40;;;;;;;39.30;19.70;;;;;;;7.12;100.00;98831.78;5075127;28;20219;-62
2021/10/18 00:35:09;;;;;;;38.83;20.03;;;;;;;7.07;100.00;98841.66;5073944;28;20242;-62
2021/10/18 00:37:36;;;;;;;34.53;18.30;;;;;;;7.05;100.00;98835.63;5074492;28;20233;-61
2021/10/18 00:40:03;;;;;;;34.63;17.80;;;;;;;7.02;100.00;98841.00;5074713;28;20599;-62
2021/10/18 00:42:30;;;;;;;35.13;18.33;;;;;;;7.01;100.00;98844.53;5074984;28;20223;-62
2021/10/18 00:44:56;;;;;;;34.80;17.63;;;;;;;7.05;100.00;98833.00;5074834;28;20216;-62
2021/10/18 00:47:23;;;;;;;33.50;16.87;;;;;;;7.13;100.00;98838.75;5074750;28;20220;-62
2021/10/18 00:49:50;;;;;;;29.17;15.80;;;;;;;7.17;100.00;98840.34;5074698;28;20219;-62
2021/10/18 00:52:21;;;;;;;27.53;15.90;;;;;;;7.22;100.00;98843.63;5074704;28;20211;-61
2021/10/18 00:54:48;;;;;;;27.47;14.97;;;;;;;7.21;100.00;98847.13;5074355;28;20223;-61
2021/10/18 00:57:15;;;;;;;28.10;15.87;;;;;;;7.18;100.00;98848.13;5074608;28;20246;-62
2021/10/18 00:59:43;;;;;;;28.17;16.03;;;;;;;7.21;100.00;98851.56;5074440;28;20208;-62
2021/10/18 01:02:10;;;;;;;25.57;14.97;;;;;;;7.22;100.00;98848.88;5072665;28;20216;-62
2021/10/18 01:04:36;;;;;;;27.90;14.83;;;;;;;7.24;100.00;98854.91;5067720;28;20242;-62
2021/10/18 01:07:03;;;;;;;28.23;16.23;;;;;;;7.24;100.00;98847.03;5074303;28;20212;-61
2021/10/18 01:09:31;;;;;;;27.50;15.90;;;;;;;7.23;100.00;98851.41;5074280;28;20234;-62
2021/10/18 01:11:57;;;;;;;27.37;15.60;;;;;;;7.27;100.00;98856.56;5074231;28;20215;-62
2021/10/18 01:14:24;;;;;;;27.43;15.60;;;;;;;7.24;100.00;98847.03;5074151;28;20232;-62
2021/10/18 01:16:50;;;;;;;28.73;16.00;;;;;;;7.22;100.00;98854.97;5074163;28;20234;-62
2021/10/18 01:19:21;;;;;;;26.83;14.97;;;;;;;7.21;100.00;98852.41;5074147;28;20211;-62
2021/10/18 01:21:50;;;;;;;32.43;17.23;;;;;;;7.20;100.00;98842.81;5073928;28;20219;-62
2021/10/18 01:24:17;;;;;;;27.37;15.90;;;;;;;7.21;100.00;98841.03;5073927;28;20218;-62
2021/10/18 01:26:44;;;;;;;27.63;15.67;;;;;;;7.18;100.00;98839.41;5074096;28;20219;-61
2021/10/18 01:29:10;;;;;;;27.37;14.97;;;;;;;7.18;100.00;98844.66;5072014;28;20215;-62
2021/10/18 01:31:39;;;;;;;27.70;15.40;;;;;;;7.09;100.00;98837.16;5073685;28;20211;-62
2021/10/18 01:34:06;;;;;;;24.63;14.47;;;;;;;7.02;100.00;98838.38;5073999;28;20246;-62
2021/10/18 01:36:33;;;;;;;25.03;14.97;;;;;;;6.93;100.00;98838.78;5073734;28;20246;-62
2021/10/18 01:39:01;;;;;;;26.30;15.57;;;;;;;6.87;100.00;98839.03;5073728;28;20246;-61
2021/10/18 01:41:27;;;;;;;24.13;15.27;;;;;;;6.85;100.00;98835.59;5073719;28;20216;-62
2021/10/18 01:43:54;;;;;;;22.30;13.80;;;;;;;6.84;100.00;98833.91;5073603;28;20587;-62
2021/10/18 01:46:21;;;;;;;30.03;16.07;;;;;;;6.81;100.00;98839.31;5073336;28;20219;-62
2021/10/18 01:48:47;;;;;;;25.63;14.57;;;;;;;6.73;100.00;98844.00;5073295;28;20211;-61
2021/10/18 01:51:14;;;;;;;25.47;14.70;;;;;;;6.67;100.00;98848.69;5073291;28;20215;-62
2021/10/18 01:53:40;;;;;;;24.23;14.03;;;;;;;6.58;100.00;98852.56;5072650;28;20215;-61
2021/10/18 01:56:08;;;;;;;22.07;14.33;;;;;;;6.52;100.00;98844.06;5072637;28;20250;-62
2021/10/18 01:58:35;;;;;;;23.80;14.13;;;;;;;6.44;100.00;98847.03;5073390;28;20222;-62
2021/10/18 02:01:02;;;;;;;23.67;13.17;;;;;;;6.41;100.00;98847.16;5073545;28;20226;-61
2021/10/18 02:03:29;;;;;;;22.33;13.73;;;;;;;6.34;100.00;98840.44;5073048;28;20707;-61
2021/10/18 02:05:56;;;;;;;22.57;13.20;;;;;;;6.23;100.00;98837.41;5072531;28;20241;-62
2021/10/18 02:08:22;;;;;;;20.93;12.93;;;;;;;6.10;100.00;98836.19;5073143;28;20238;-61
2021/10/18 02:10:48;;;;;;;21.73;13.27;;;;;;;6.02;100.00;98842.66;5073003;28;20234;-61
2021/10/18 02:13:16;;;;;;;23.10;13.97;;;;;;;5.90;100.00;98845.75;5073152;28;20222;-61
2021/10/18 02:15:43;;;;;;;24.43;14.53;;;;;;;5.81;100.00;98846.97;5073099;28;20723;-62
2021/10/18 02:18:09;;;;;;;25.47;13.47;;;;;;;5.76;100.00;98840.19;5070043;28;20226;-62
2021/10/18 02:20:36;;;;;;;23.70;13.33;;;;;;;5.72;100.00;98839.44;5071621;28;20218;-62
2021/10/18 02:23:02;;;;;;;22.67;13.80;;;;;;;5.64;100.00;98841.53;5072770;28;20207;-62
2021/10/18 02:25:29;;;;;;;20.60;12.77;;;;;;;5.63;100.00;98845.03;5072860;28;20218;-62
2021/10/18 02:27:55;;;;;;;22.63;13.03;;;;;;;5.54;100.00;98834.03;5072910;28;20214;-62
2021/10/18 02:30:23;;;;;;;23.60;14.00;;;;;;;5.49;100.00;98842.09;5073155;28;20214;-62
2021/10/18 02:32:50;;;;;;;21.60;13.03;;;;;;;5.45;100.00;98830.00;5073170;28;20222;-61
2021/10/18 02:35:17;;;;;;;21.83;12.93;;;;;;;5.39;100.00;98840.75;5073116;28;20246;-61
2021/10/18 02:37:43;;;;;;;24.40;13.83;;;;;;;5.35;100.00;98830.41;5072847;28;20238;-61
2021/10/18 02:40:10;;;;;;;26.23;13.90;;;;;;;5.38;100.00;98828.53;5073042;28;20571;-62
2021/10/18 02:42:37;;;;;;;26.87;15.23;;;;;;;5.43;100.00;98837.06;5072703;28;20222;-61
2021/10/18 02:45:04;;;;;;;28.43;14.90;;;;;;;5.46;100.00;98839.59;5072842;28;20585;-61
2021/10/18 02:47:32;;;;;;;29.20;15.37;;;;;;;5.53;100.00;98841.06;5070995;28;20706;-62
2021/10/18 02:49:58;;;;;;;25.77;14.97;;;;;;;5.46;100.00;98831.72;5059511;28;20218;-62
2021/10/18 02:52:25;;;;;;;25.03;14.43;;;;;;;5.46;100.00;98831.72;5072858;28;20211;-61
2021/10/18 02:54:51;;;;;;;24.50;13.87;;;;;;;5.50;100.00;98827.22;5072812;28;20222;-62
2021/10/18 02:57:18;;;;;;;25.77;14.70;;;;;;;5.59;100.00;98821.63;5072388;28;20725;-61
2021/10/18 02:59:44;;;;;;;25.80;14.83;;;;;;;5.76;100.00;98830.56;5072675;28;20210;-61
2021/10/18 03:02:11;;;;;;;31.30;15.63;;;;;;;5.90;100.00;98837.91;5072460;28;20212;-62
2021/10/18 03:04:39;;;;;;;32.13;16.97;;;;;;;6.04;100.00;98839.06;5072914;28;20259;-61
2021/10/18 03:07:06;;;;;;;32.37;16.93;;;;;;;6.20;100.00;98841.91;5072884;28;20226;-61
2021/10/18 03:09:32;;;;;;;33.57;17.03;;;;;;;6.35;100.00;98842.16;5072386;28;20222;-61
2021/10/18 03:11:59;;;;;;;36.37;17.20;;;;;;;6.48;100.00;98842.50;5072769;28;20297;-61
2021/10/18 03:14:25;;;;;;;34.93;17.40;;;;;;;6.58;100.00;98849.06;5070502;28;20328;-62
2021/10/18 03:16:52;;;;;;;32.90;17.23;;;;;;;6.68;100.00;98850.41;5072542;28;20246;-61
2021/10/18 03:19:18;;;;;;;30.47;16.73;;;;;;;6.75;100.00;98847.44;5076398;28;20222;-62
2021/10/18 03:21:46;;;;;;;28.60;16.33;;;;;;;6.80;100.00;98856.00;5076412;28;20217;-61
2021/10/18 03:24:12;;;;;;;28.23;14.80;;;;;;;6.80;100.00;98856.00;5076298;28;20599;-62
2021/10/18 03:26:39;;;;;;;26.97;15.40;;;;;;;6.84;100.00;98860.19;5076273;28;20215;-62
2021/10/18 03:29:05;;;;;;;26.60;14.97;;;;;;;6.86;100.00;98866.25;5075980;28;20211;-62
2021/10/18 03:31:32;;;;;;;29.47;15.60;;;;;;;6.91;100.00;98856.38;5075959;28;20221;-62
2021/10/18 03:33:58;;;;;;;33.27;16.77;;;;;;;6.92;100.00;98858.09;5076153;28;20212;-62
2021/10/18 03:36:25;;;;;;;33.87;17.60;;;;;;;7.01;100.00;98870.00;5075988;28;20235;-62
2021/10/18 03:38:53;;;;;;;33.67;16.87;;;;;;;7.05;100.00;98867.16;5074215;28;20574;-62
2021/10/18 03:41:19;;;;;;;30.80;16.60;;;;;;;7.12;100.00;98863.34;5076128;28;20222;-62
2021/10/18 03:43:45;;;;;;;34.30;17.43;;;;;;;7.16;100.00;98864.91;5075977;28;20212;-62
2021/10/18 03:46:12;;;;;;;32.90;18.87;;;;;;;7.22;100.00;98859.38;5075953;28;20218;-61
2021/10/18 03:48:38;;;;;;;30.00;17.10;;;;;;;7.25;100.00;98864.50;5073302;28;20215;-61
2021/10/18 03:51:05;;;;;;;28.00;16.47;;;;;;;7.25;100.00;98877.66;5075649;28;20219;-62
2021/10/18 03:53:31;;;;;;;30.80;15.80;;;;;;;7.25;100.00;98880.28;5075748;28;20215;-62
2021/10/18 03:55:59;;;;;;;30.93;17.03;;;;;;;7.28;100.00;98888.03;5075647;28;20669;-62
2021/10/18 03:58:26;;;;;;;32.77;17.27;;;;;;;7.28;100.00;98885.41;5075367;28;20218;-62
2021/10/18 04:00:52;;;;;;;32.83;17.57;;;;;;;7.30;100.00;98889.66;5075441;28;20222;-62
2021/10/18 04:03:18;;;;;;;32.43;18.23;;;;;;;7.36;100.00;98886.75;5075396;28;20225;-62
2021/10/18 04:05:45;;;;;;;35.70;19.07;;;;;;;7.42;100.00;98896.16;5073959;28;20215;-61
2021/10/18 04:08:11;;;;;;;33.40;18.37;;;;;;;7.43;100.00;98888.22;5075238;28;20215;-62
2021/10/18 04:10:38;;;;;;;33.83;18.17;;;;;;;7.45;100.00;98894.25;5075332;28;20293;-62
2021/10/18 04:13:06;;;;;;;35.53;18.60;;;;;;;7.43;100.00;98882.09;5075600;28;20223;-62
2021/10/18 04:15:32;;;;;;;31.57;16.77;;;;;;;7.45;100.00;98893.38;5075388;28;20239;-61
2021/10/18 04:17:59;;;;;;;29.70;17.03;;;;;;;7.45;100.00;98891.63;5075379;28;20239;-61
2021/10/18 04:20:25;;;;;;;35.00;18.47;;;;;;;7.51;100.00;98893.09;5075343;28;20211;-62
2021/10/18 04:22:52;;;;;;;31.57;17.43;;;;;;;7.54;100.00;98900.88;5075122;28;20220;-62
2021/10/18 04:25:18;;;;;;;30.13;17.33;;;;;;;7.57;100.00;98900.72;5075077;28;20219;-61
2021/10/18 04:27:45;;;;;;;32.53;17.13;;;;;;;7.59;100.00;98901.53;5074929;28;20215;-62
2021/10/18 04:30:13;;;;;;;31.97;17.40;;;;;;;7.61;100.00;98904.94;5073903;28;20222;-62
2021/10/18 04:32:39;;;;;;;29.43;17.03;;;;;;;7.58;100.00;98900.66;5073575;28;20211;-61
2021/10/18 04:35:07;;;;;;;32.40;16.17;;;;;;;7.60;100.00;98897.97;5075119;28;20226;-62
2021/10/18 04:37:33;;;;;;;32.57;16.87;;;;;;;7.60;100.00;98911.97;5074876;28;20249;-61
2021/10/18 04:40:00;;;;;;;30.67;16.30;;;;;;;7.63;100.00;98918.88;5074838;28;20217;-61
2021/10/18 04:42:26;;;;;;;36.17;18.20;;;;;;;7.67;100.00;98920.44;5074661;28;20211;-62
2021/10/18 04:44:53;;;;;;;29.30;15.93;;;;;;;7.67;100.00;98909.91;5074879;28;20598;-62
2021/10/18 04:47:21;;;;;;;32.00;16.70;;;;;;;7.69;100.00;98908.94;5074521;28;20669;-61
2021/10/18 04:49:47;;;;;;;30.77;16.30;;;;;;;7.60;100.00;98913.75;5074391;28;20223;-61
2021/10/18 04:52:14;;;;;;;33.77;18.47;;;;;;;7.51;100.00;98917.66;5074451;28;20222;-62
2021/10/18 04:54:40;;;;;;;31.60;16.53;;;;;;;7.51;100.00;98922.03;5074677;28;20211;-62
2021/10/18 04:57:07;;;;;;;27.90;15.53;;;;;;;7.57;100.00;98924.41;5073200;28;20242;-62
2021/10/18 04:59:33;;;;;;;30.87;15.80;;;;;;;7.64;100.00;98925.81;5073844;28;20214;-62
2021/10/18 05:02:00;;;;;;;30.60;16.70;;;;;;;7.73;100.00;98934.16;5074524;28;20218;-62
2021/10/18 05:04:27;;;;;;;31.27;16.57;;;;;;;7.77;100.00;98934.91;5074486;28;20595;-61
2021/10/18 05:06:54;;;;;;;27.83;15.33;;;;;;;7.80;100.00;98932.13;5074329;28;20219;-62
2021/10/18 05:09:20;;;;;;;29.40;16.20;;;;;;;7.83;100.00;98938.09;5074195;28;20215;-62
2021/10/18 05:11:47;;;;;;;30.90;16.23;;;;;;;7.82;100.00;98932.88;5074401;28;20215;-61
2021/10/18 05:14:13;;;;;;;32.43;16.33;;;;;;;7.83;100.00;98942.53;5074003;28;20223;-61
2021/10/18 05:16:40;;;;;;;33.33;16.67;;;;;;;7.82;100.00;98946.03;5074118;28;20235;-61
2021/10/18 05:19:07;;;;;;;31.50;16.17;;;;;;;7.82;100.00;98944.28;5071494;28;20224;-62
2021/10/18 05:21:35;;;;;;;34.40;17.60;;;;;;;7.85;100.00;98945.94;5073948;28;20322;-61
2021/10/18 05:24:01;;;;;;;30.63;16.90;;;;;;;7.87;100.00;98942.31;5072549;28;20223;-62
2021/10/18 05:26:28;;;;;;;31.70;16.33;;;;;;;7.87;100.00;98944.94;5074116;28;20219;-64
2021/10/18 05:28:54;;;;;;;28.10;16.13;;;;;;;7.89;100.00;98931.72;5073922;28;20212;-62
2021/10/18 05:31:21;;;;;;;31.33;15.70;;;;;;;7.91;100.00;98929.84;5073656;28;20211;-62
2021/10/18 05:33:47;;;;;;;32.47;17.07;;;;;;;7.91;100.00;98935.94;5073899;28;20215;-62
2021/10/18 05:36:14;;;;;;;33.20;16.97;;;;;;;7.93;100.00;98935.88;5073962;28;20222;-62
2021/10/18 05:38:41;;;;;;;38.47;18.23;;;;;;;7.99;100.00;98939.09;5073783;28;20246;-61
2021/10/18 05:41:08;;;;;;;33.47;17.37;;;;;;;8.01;100.00;98939.88;5073335;28;20223;-62
2021/10/18 05:43:34;;;;;;;32.53;17.23;;;;;;;8.05;100.00;98943.22;5073839;28;20630;-62
2021/10/18 05:46:01;;;;;;;33.17;17.50;;;;;;;8.03;100.00;98939.81;5073571;28;20234;-62
2021/10/18 05:48:27;;;;;;;33.33;18.13;;;;;;;8.05;100.00;98953.75;5073408;28;20234;-61
2021/10/18 05:50:54;;;;;;;30.83;17.43;;;;;;;8.03;100.00;98961.72;5071548;28;20685;-62
2021/10/18 05:53:20;;;;;;;35.23;18.60;;;;;;;8.00;100.00;98951.34;5073593;28;20285;-62
2021/10/18 05:55:49;;;;;;;31.13;16.17;;;;;;;8.00;100.00;98967.13;5073586;28;20216;-62
2021/10/18 05:58:15;;;;;;;29.50;16.60;;;;;;;7.98;100.00;98968.13;5073154;28;20317;-62
2021/10/18 06:00:44;;;;;;;31.57;16.83;;;;;;;8.03;100.00;98972.25;5073526;28;20242;-62
2021/10/18 06:03:11;;;;;;;30.60;16.27;;;;;;;8.07;100.00;98972.97;5073323;28;20216;-62
2021/10/18 06:05:43;;;;;;;31.03;17.67;;;;;;;8.10;100.00;98967.56;5073425;28;20211;-62
2021/10/18 06:08:11;;;;;;;28.20;15.60;;;;;;;8.14;100.00;98979.69;5073357;28;20211;-61
2021/10/18 06:10:38;;;;;;;33.57;16.93;;;;;;;8.18;100.00;98981.22;5073474;28;20212;-62
2021/10/18 06:13:06;;;;;;;27.60;16.03;;;;;;;8.20;100.00;98971.53;5073441;28;20218;-62
2021/10/18 06:15:33;;;;;;;30.20;16.50;;;;;;;8.25;100.00;98978.28;5072751;28;20240;-62
2021/10/18 06:18:08;;;;;;;32.50;16.97;;;;;;;8.27;100.00;98973.78;5071606;28;20245;-62
2021/10/18 06:20:34;;;;;;;30.07;16.10;;;;;;;8.30;100.00;98978.06;5073208;28;20219;-62
2021/10/18 06:23:01;;;;;;;32.17;16.80;;;;;;;8.34;100.00;98987.53;5073199;28;20207;-62
2021/10/18 06:25:29;;;;;;;28.30;15.47;;;;;;;8.37;100.00;98982.09;5072915;28;20220;-62
2021/10/18 06:27:56;;;;;;;29.93;16.27;;;;;;;8.38;100.00;98983.84;5070303;28;20214;-62
2021/10/18 06:30:26;;;;;;;31.23;17.13;;;;;;;8.41;100.00;98988.94;5072775;28;20707;-62
2021/10/18 06:32:52;;;;;;;34.70;18.23;;;;;;;8.49;100.00;98992.06;5072839;28;20259;-62
2021/10/18 06:35:19;;;;;;;36.00;18.33;;;;;;;8.49;100.00;99002.59;5073095;28;20588;-62
2021/10/18 06:37:45;;;;;;;35.00;17.73;;;;;;;8.53;100.00;99001.53;5072905;28;20235;-62
2021/10/18 06:40:13;;;;;;;32.10;17.83;;;;;;;8.56;100.00;98999.63;5072715;28;20239;-62
2021/10/18 06:42:39;;;;;;;30.80;16.80;;;;;;;8.58;100.00;99002.19;5071311;28;20222;-62
2021/10/18 06:45:07;;;;;;;34.00;16.17;;;;;;;8.64;100.00;99008.00;5072801;28;20227;-62
2021/10/18 06:47:35;;;;;;;34.30;17.43;;;;;;;8.65;100.00;99016.78;5072836;28;20215;-62
2021/10/18 06:50:02;;;;;;;30.60;17.33;;;;;;;8.56;100.00;99019.84;5073190;28;20221;-62
2021/10/18 06:52:32;;;;;;;31.47;16.33;;;;;;;8.61;100.00;99012.56;5074064;28;20580;-62
2021/10/18 06:54:59;;;;;;;32.17;17.70;;;;;;;8.63;100.00;99023.91;5076784;28;20700;-62
2021/10/18 06:57:26;;;;;;;34.00;16.93;;;;;;;8.68;100.00;99021.88;5076553;28;20246;-62
2021/10/18 06:59:52;;;;;;;32.90;17.20;;;;;;;8.73;100.00;99033.94;5076995;28;20232;-63
2021/10/18 07:02:19;;;;;;;31.93;17.17;;;;;;;8.70;100.00;99033.22;5076715;28;20222;-62
2021/10/18 07:04:47;;;;;;;30.53;16.37;;;;;;;8.76;100.00;99032.94;5076890;28;20215;-62
2021/10/18 07:07:13;;;;;;;30.73;17.17;;;;;;;8.84;100.00;99036.03;5076281;28;20219;-62
2021/10/18 07:09:40;;;;;;;32.03;17.50;;;;;;;8.91;100.00;99029.53;5075072;28;20213;-62
2021/10/18 07:12:07;;;;;;;30.37;16.27;;;;;;;8.98;100.00;99030.94;5074352;28;20216;-62
2021/10/18 07:14:33;;;;;;;33.83;18.07;;;;;;;9.02;100.00;99035.16;5074818;28;20240;-63
2021/10/18 07:16:59;;;;;;;32.67;17.13;;;;;;;9.07;100.00;99038.44;5076424;28;20208;-63
2021/10/18 07:19:26;;;;;;;33.73;18.57;;;;;;;9.15;100.00;99036.25;5076667;28;20243;-62
2021/10/18 07:21:54;;;;;;;30.50;17.07;;;;;;;9.19;100.00;99037.84;5076529;28;20216;-62
2021/10/18 07:24:20;;;;;;;28.87;16.73;;;;;;;9.22;100.00;99038.53;5076524;28;20215;-62
2021/10/18 07:26:49;;;;;;;27.33;15.87;;;;;;;9.32;100.00;99038.94;5076038;28;20210;-62
2021/10/18 07:29:16;;;;;;;31.20;17.37;;;;;;;9.41;100.00;99038.44;5063137;28;20241;-62
2021/10/18 07:31:43;;;;;;;29.53;16.27;;;;;;;9.49;100.00;99036.31;5076281;28;20225;-62
2021/10/18 07:34:14;;;;;;;31.00;17.00;;;;;;;9.60;100.00;99039.25;5076065;28;20211;-62
2021/10/18 07:36:48;;;;;;;30.70;16.93;;;;;;;9.69;100.00;99047.56;5073325;28;20238;-62
2021/10/18 07:39:17;;;;;;;28.17;15.77;;;;;;;9.76;100.00;99040.16;5076212;28;20250;-62
2021/10/18 07:41:43;;;;;;;30.33;16.93;;;;;;;9.84;100.00;99043.28;5075849;28;20293;-62
2021/10/18 07:44:10;;;;;;;29.83;16.50;;;;;;;9.91;100.00;99042.03;5076096;28;20278;-62
2021/10/18 07:46:36;;;;;;;28.20;16.83;;;;;;;9.99;100.00;99045.09;5073409;28;20221;-62
2021/10/18 07:49:03;;;;;;;31.67;16.93;;;;;;;10.05;100.00;99044.81;5076169;28;20589;-62
2021/10/18 07:51:30;;;;;;;30.63;16.97;;;;;;;10.11;100.00;99048.00;5076109;28;20214;-62
2021/10/18 07:53:56;;;;;;;28.50;16.67;;;;;;;10.16;100.00;99043.31;5075641;28;20211;-62
2021/10/18 07:56:24;;;;;;;27.33;15.53;;;;;;;10.18;100.00;99048.50;5075823;28;20214;-62
2021/10/18 07:58:51;;;;;;;29.90;17.00;;;;;;;10.22;100.00;99050.06;5075657;28;20232;-62
2021/10/18 08:01:17;;;;;;;26.83;15.43;;;;;;;10.26;100.00;99046.31;5073880;28;20220;-62
2021/10/18 08:03:44;;;;;;;27.63;16.50;;;;;;;10.32;100.00;99056.56;5074435;28;20218;-63
2021/10/18 08:06:12;;;;;;;26.60;15.50;;;;;;;10.30;100.00;99064.59;5075515;28;20214;-63
2021/10/18 08:08:44;;;;;;;31.03;17.33;;;;;;;10.29;100.00;99067.28;5075434;28;20212;-63
2021/10/18 08:11:11;;;;;;;25.30;14.77;;;;;;;10.29;100.00;99067.28;5075699;28;20234;-63
2021/10/18 08:13:39;;;;;;;27.90;15.37;;;;;;;10.37;100.00;99075.66;5075334;28;20224;-62
2021/10/18 08:16:06;;;;;;;24.57;15.73;;;;;;;10.40;100.00;99070.22;5072967;28;20248;-63
2021/10/18 08:18:33;;;;;;;24.50;14.57;;;;;;;10.44;100.00;99063.81;5075116;28;20264;-62
2021/10/18 08:20:59;;;;;;;21.17;14.63;;;;;;;10.42;100.00;99068.34;5075384;28;20221;-62
2021/10/18 08:23:26;;;;;;;19.83;14.03;;;;;;;10.45;100.00;99073.47;5075084;28;20215;-62
2021/10/18 08:25:52;;;;;;;20.33;13.73;;;;;;;10.46;100.00;99064.63;5075070;28;20216;-62
2021/10/18 08:28:19;;;;;;;18.70;13.40;;;;;;;10.46;100.00;99064.63;5073753;28;20586;-62
2021/10/18 08:30:47;;;;;;;24.27;15.30;;;;;;;10.49;100.00;99065.28;5074907;28;20223;-62
2021/10/18 08:33:13;;;;;;;21.60;14.33;;;;;;;10.50;100.00;99064.34;5075116;28;20223;-62
2021/10/18 08:35:40;;;;;;;20.27;13.90;;;;;;;10.56;100.00;99068.44;5074925;28;20221;-62
2021/10/18 08:38:46;;;;;;;20.33;14.57;;;;;;;10.60;100.00;99067.34;5075030;28;20629;-62
2021/10/18 08:41:16;;;;;;;20.00;14.87;;;;;;;10.65;100.00;99070.59;5074924;28;20224;-62
2021/10/18 08:46:28;;;;;;;20.30;14.13;;;;;;;10.68;100.00;99067.78;5074638;28;20272;-62
2021/10/18 08:48:57;;;;;;;19.70;14.07;;;;;;;10.74;100.00;99070.09;5074845;28;20215;-63
2021/10/18 08:51:24;;;;;;;19.27;14.73;;;;;;;10.81;100.00;99076.72;5074327;28;20673;-62
2021/10/18 08:53:51;;;;;;;19.77;14.77;;;;;;;10.84;100.00;99076.59;5072980;28;20243;-62
2021/10/18 08:56:18;;;;;;;21.93;15.67;;;;;;;10.86;100.00;99082.63;5074523;28;20221;-62
2021/10/18 08:58:45;;;;;;;20.90;15.13;;;;;;;10.89;100.00;99085.13;5074589;28;20228;-62
2021/10/18 09:01:11;;;;;;;20.00;15.23;;;;;;;10.89;100.00;99091.25;5074426;28;20226;-62
2021/10/18 09:03:39;;;;;;;18.60;13.90;;;;;;;10.93;100.00;99089.28;5060961;28;20226;-62
2021/10/18 09:06:10;;;;;;;21.23;14.00;;;;;;;10.97;100.00;99088.19;5074597;28;20216;-62
2021/10/18 09:08:38;;;;;;;20.70;15.17;;;;;;;11.03;100.00;99087.84;5074387;28;20262;-63
2021/10/18 09:11:16;;;;;;;20.77;14.70;;;;;;;11.03;100.00;99082.56;5074097;28;20681;-62
2021/10/18 09:13:46;;;;;;;18.93;14.07;;;;;;;11.05;100.00;99080.66;5074312;28;20222;-62
2021/10/18 09:16:22;;;;;;;20.13;14.77;;;;;;;11.09;99.39;99082.22;5074264;28;20237;-62
2021/10/18 09:18:59;;;;;;;21.77;15.33;;;;;;;11.15;99.15;99081.88;5072053;28;20235;-62
2021/10/18 09:21:29;;;;;;;22.27;15.97;;;;;;;11.18;98.85;99082.53;5061583;28;20216;-62
2021/10/18 09:23:56;;;;;;;20.17;14.97;;;;;;;11.22;98.92;99080.56;5074166;28;20216;-62
2021/10/18 09:26:24;;;;;;;21.83;16.00;;;;;;;11.24;98.35;99078.69;5074075;28;20244;-62
2021/10/18 09:28:53;;;;;;;22.53;16.07;;;;;;;11.25;98.25;99083.06;5071357;28;20599;-63
2021/10/18 09:31:20;;;;;;;22.00;15.57;;;;;;;11.27;98.61;99081.16;5074112;28;20238;-63
2021/10/18 09:33:50;;;;;;;20.37;14.70;;;;;;;11.26;98.81;99085.59;5074040;28;20213;-62
2021/10/18 09:36:23;;;;;;;20.70;15.20;;;;;;;11.29;98.97;99080.16;5073624;28;20744;-62
2021/10/18 09:38:49;;;;;;;21.23;14.93;;;;;;;11.29;98.51;99077.50;5073492;28;20235;-62
2021/10/18 09:41:24;;;;;;;22.67;15.33;;;;;;;11.30;98.49;99075.69;5073904;28;20209;-62
2021/10/18 09:43:56;;;;;;;22.23;15.47;;;;;;;11.30;98.70;99080.97;5073851;28;20212;-62
2021/10/18 09:46:25;;;;;;;22.07;15.60;;;;;;;11.33;99.12;99079.03;5071869;28;20215;-62
2021/10/18 10:51:03;;;;;;;18.53;13.53;;;;;;;12.60;88.57;99067.75;5072648;28;20235;-62
2021/10/18 10:53:48;;;;;;;21.43;14.17;;;;;;;12.67;87.97;99076.19;5072707;28;20222;-62
2021/10/18 10:56:26;;;;;;;17.70;13.10;;;;;;;12.74;87.44;99081.00;5072544;28;20226;-62
2021/10/18 10:59:01;;;;;;;19.53;14.33;;;;;;;12.89;86.82;99076.53;5072425;28;20245;-62
2021/10/18 11:01:51;;;;;;;19.63;14.33;;;;;;;13.03;86.19;99069.41;5072475;28;20747;-62
2021/10/18 11:04:54;;;;;;;18.70;13.43;;;;;;;13.25;86.07;99064.44;5071092;28;20223;-62
2021/10/18 11:07:53;;;;;;;15.70;12.40;;;;;;;13.38;85.70;99067.16;5071014;28;20211;-62
2021/10/18 11:10:23;;;;;;;20.07;13.97;;;;;;;13.48;85.08;99070.88;5072831;28;20218;-62
2021/10/18 11:12:53;;;;;;;19.90;14.30;;;;;;;13.41;82.79;99067.78;5072718;28;20214;-62
2021/10/18 11:15:21;;;;;;;18.73;14.03;;;;;;;13.34;82.26;99062.97;5072569;28;20246;-62
2021/10/18 11:17:49;;;;;;;19.00;13.80;;;;;;;13.38;82.83;99056.53;5072650;28;20217;-62
2021/10/18 11:20:17;;;;;;;17.37;13.03;;;;;;;13.38;83.09;99059.19;5072626;28;20231;-62
2021/10/18 11:22:46;;;;;;;18.03;12.70;;;;;;;13.36;83.73;99055.75;5072555;28;20219;-62
2021/10/18 11:25:14;;;;;;;20.70;15.30;;;;;;;13.10;83.27;99053.97;5072327;28;20214;-63
2021/10/18 11:27:44;;;;;;;20.23;13.90;;;;;;;13.02;84.59;99053.63;5072177;28;20215;-64
2021/10/18 11:30:14;;;;;;;18.67;14.63;;;;;;;12.97;83.35;99047.75;5070835;28;20215;-62
2021/10/18 11:32:41;;;;;;;18.97;13.63;;;;;;;12.96;84.21;99049.53;5072250;28;20582;-62
2021/10/18 11:35:19;;;;;;;19.70;14.77;;;;;;;13.07;84.91;99048.88;5072425;28;20290;-62
2021/10/18 11:37:55;;;;;;;20.03;13.87;;;;;;;13.17;85.33;99044.63;5072229;28;20213;-62
2021/10/18 11:40:24;;;;;;;19.67;14.17;;;;;;;13.19;83.49;99058.66;5076105;28;20242;-62
2021/10/18 11:42:52;;;;;;;18.87;14.40;;;;;;;13.13;83.18;99054.59;5075796;28;20225;-62
2021/10/18 11:45:22;;;;;;;17.17;13.67;;;;;;;13.12;83.25;99046.75;5075739;28;20221;-62
2021/10/18 11:47:49;;;;;;;19.40;15.17;;;;;;;13.04;82.75;99049.03;5075759;28;20223;-63
2021/10/18 11:50:21;;;;;;;22.67;15.43;;;;;;;12.81;85.13;99042.53;5075933;28;20211;-62
2021/10/18 11:52:51;;;;;;;18.70;14.60;;;;;;;12.63;88.22;99032.22;5062829;28;20215;-62
2021/10/18 11:55:20;;;;;;;19.50;14.00;;;;;;;12.55;89.29;99019.47;5073931;28;20631;-62
2021/10/18 11:57:49;;;;;;;19.23;14.23;;;;;;;12.49;90.40;99021.66;5075449;28;20213;-62
2021/10/18 12:00:25;;;;;;;18.50;14.53;;;;;;;12.40;91.51;99019.59;5075496;28;20249;-62
2021/10/18 12:02:54;;;;;;;19.50;15.40;;;;;;;12.29;91.43;99008.78;5075558;28;20226;-62
2021/10/18 12:05:23;;;;;;;18.70;14.07;;;;;;;12.21;92.36;99016.34;5075549;28;20232;-62
2021/10/18 12:07:50;;;;;;;19.90;14.00;;;;;;;12.18;92.79;99003.28;5075636;28;20214;-62
2021/10/18 12:10:26;;;;;;;20.33;14.93;;;;;;;12.18;93.04;99005.94;5075418;28;20212;-62
2021/10/18 12:13:18;;;;;;;21.33;14.87;;;;;;;12.22;93.24;98999.53;5075658;28;20220;-62
2021/10/18 12:16:12;;;;;;;19.13;14.53;;;;;;;12.22;93.65;98995.06;5071968;28;20296;-62
2021/10/18 12:18:45;;;;;;;19.37;14.50;;;;;;;12.25;93.56;98989.56;5054456;28;20278;-62
2021/10/18 12:21:15;;;;;;;21.37;15.43;;;;;;;12.27;92.66;98994.75;5073492;28;20218;-62
2021/10/18 12:23:48;;;;;;;22.17;15.03;;;;;;;12.31;92.25;98983.03;5075287;28;20221;-62
2021/10/18 12:26:17;;;;;;;18.73;14.10;;;;;;;12.28;92.11;98994.66;5062313;28;20214;-62